createdAt,value
2017-07-27T00:01:00.633Z,84.50
2017-07-27T00:03:28.165Z,84.70
2017-07-27T00:05:56.029Z,84.80
2017-07-27T00:08:23.568Z,85.10
2017-07-27T00:10:51.116Z,85.50
2017-07-27T00:13:19.468Z,85.80
2017-07-27T00:15:47.051Z,85.80
2017-07-27T00:18:15.357Z,86.20
2017-07-27T00:20:42.937Z,86.20
2017-07-27T00:23:10.485Z,86.40
2017-07-27T00:25:38.070Z,86.40
2017-07-27T00:28:05.657Z,86.60
2017-07-27T00:30:33.198Z,86.60
2017-07-27T00:33:00.774Z,86.70
2017-07-27T00:35:28.326Z,86.80
2017-07-27T00:37:56.386Z,87.00
2017-07-27T00:40:23.927Z,87.10
2017-07-27T00:42:51.466Z,87.30
2017-07-27T00:45:19.069Z,87.30
2017-07-27T00:47:46.625Z,87.30
2017-07-27T00:50:14.205Z,87.40
2017-07-27T00:52:42.133Z,87.40
2017-07-27T00:55:09.981Z,87.30
2017-07-27T00:57:37.522Z,87.20
2017-07-27T01:00:05.872Z,87.30
2017-07-27T01:02:33.510Z,87.30
2017-07-27T01:05:01.054Z,87.40
2017-07-27T01:07:28.895Z,87.30
2017-07-27T01:09:57.201Z,87.40
2017-07-27T01:12:24.743Z,87.40
2017-07-27T01:14:52.321Z,87.50
2017-07-27T01:17:20.493Z,87.60
2017-07-27T01:19:48.072Z,87.60
2017-07-27T01:22:15.630Z,87.70
2017-07-27T01:24:43.221Z,87.80
2017-07-27T01:27:10.802Z,87.90
2017-07-27T01:29:39.104Z,88.20
2017-07-27T01:32:07.010Z,88.10
2017-07-27T01:34:34.553Z,88.20
2017-07-27T01:37:02.138Z,88.40
2017-07-27T01:39:29.678Z,88.50
2017-07-27T01:41:57.325Z,88.70
2017-07-27T01:44:24.866Z,88.60
2017-07-27T01:46:52.890Z,88.70
2017-07-27T01:49:20.432Z,88.70
2017-07-27T01:51:47.980Z,88.70
2017-07-27T01:54:15.600Z,88.60
2017-07-27T01:56:43.654Z,88.80
2017-07-27T01:59:11.193Z,88.90
2017-07-27T02:01:39.161Z,89.10
2017-07-27T02:04:06.705Z,89.20
2017-07-27T02:06:34.257Z,89.30
2017-07-27T02:09:01.899Z,89.30
2017-07-27T02:11:30.241Z,89.50
2017-07-27T02:13:57.780Z,89.40
2017-07-27T02:16:25.357Z,89.50
2017-07-27T02:18:52.928Z,89.70
2017-07-27T02:21:20.508Z,89.80
2017-07-27T02:23:48.853Z,89.80
2017-07-27T02:26:16.394Z,90.20
2017-07-27T02:28:43.978Z,89.80
2017-07-27T02:31:14.045Z,89.90
2017-07-27T02:33:41.634Z,90.00
2017-07-27T02:36:09.178Z,90.00
2017-07-27T02:38:36.756Z,90.00
2017-07-27T02:41:04.300Z,90.00
2017-07-27T02:43:40.694Z,90.00
2017-07-27T02:46:10.329Z,90.10
2017-07-27T02:48:40.202Z,90.10
2017-07-27T02:53:47.137Z,90.10
2017-07-27T02:56:16.703Z,90.20
2017-07-27T02:58:59.121Z,90.20
2017-07-27T03:01:41.051Z,90.20
2017-07-27T03:04:38.349Z,90.20
2017-07-27T03:10:10.885Z,90.20
2017-07-27T03:13:12.083Z,90.30
2017-07-27T03:21:21.345Z,90.30
2017-07-27T03:23:49.657Z,90.10
2017-07-27T03:26:17.237Z,90.40
2017-07-27T03:28:44.777Z,90.40
2017-07-27T03:31:12.358Z,90.50
2017-07-27T03:33:39.897Z,90.50
2017-07-27T03:36:07.622Z,90.50
2017-07-27T03:38:35.162Z,90.50
2017-07-27T03:41:04.317Z,90.60
2017-07-27T03:43:31.862Z,90.60
2017-07-27T03:45:59.403Z,90.60
2017-07-27T03:48:26.983Z,90.60
2017-07-27T03:50:54.525Z,90.60
2017-07-27T03:53:24.454Z,90.90
2017-07-27T03:55:52.756Z,90.60
2017-07-27T03:58:20.297Z,90.90
2017-07-27T04:00:48.098Z,90.60
2017-07-27T04:03:15.642Z,90.70
2017-07-27T04:05:43.230Z,90.70
2017-07-27T04:08:11.246Z,90.70
2017-07-27T04:10:38.788Z,90.80
2017-07-27T04:13:07.101Z,90.90
2017-07-27T04:15:35.001Z,90.90
2017-07-27T04:18:02.577Z,90.90
2017-07-27T04:20:30.122Z,90.90
2017-07-27T04:22:57.704Z,91.00
2017-07-27T04:25:25.241Z,91.00
2017-07-27T04:27:52.817Z,91.00
2017-07-27T04:30:20.357Z,91.00
2017-07-27T04:32:49.158Z,91.10
2017-07-27T04:35:16.694Z,91.10
2017-07-27T04:37:44.791Z,91.20
2017-07-27T04:40:12.334Z,91.20
2017-07-27T04:42:39.877Z,91.20
2017-07-27T04:45:07.842Z,91.20
2017-07-27T04:47:35.382Z,91.20
2017-07-27T04:50:03.690Z,91.30
2017-07-27T04:52:31.279Z,91.30
2017-07-27T04:54:58.997Z,91.30
2017-07-27T04:57:38.410Z,91.40
2017-07-27T05:00:06.748Z,91.30
2017-07-27T05:02:37.721Z,91.30
2017-07-27T05:05:05.489Z,91.40
2017-07-27T05:07:33.028Z,91.40
2017-07-27T05:10:00.569Z,91.40
2017-07-27T05:12:28.169Z,91.40
2017-07-27T05:14:56.829Z,91.40
2017-07-27T05:17:24.372Z,91.40
2017-07-27T05:19:52.682Z,91.40
2017-07-27T05:22:20.417Z,91.40
2017-07-27T05:24:47.957Z,91.40
2017-07-27T05:27:15.534Z,91.40
2017-07-27T05:29:43.078Z,91.50
2017-07-27T05:32:10.658Z,91.50
2017-07-27T05:34:38.197Z,91.50
2017-07-27T05:37:06.305Z,91.50
2017-07-27T05:39:33.854Z,91.60
2017-07-27T05:42:01.396Z,91.60
2017-07-27T05:44:28.982Z,91.70
2017-07-27T05:46:57.375Z,91.70
2017-07-27T05:49:24.933Z,91.70
2017-07-27T05:51:52.490Z,91.70
2017-07-27T05:54:20.127Z,91.60
2017-07-27T05:56:52.171Z,91.50
2017-07-27T05:59:19.823Z,91.60
2017-07-27T06:01:47.366Z,91.60
2017-07-27T06:04:15.714Z,91.50
2017-07-27T06:06:43.257Z,91.50
2017-07-27T06:09:10.843Z,91.50
2017-07-27T06:11:38.429Z,91.50
2017-07-27T06:14:06.750Z,91.60
2017-07-27T06:16:34.437Z,91.60
2017-07-27T06:19:01.980Z,91.70
2017-07-27T06:21:29.645Z,91.70
2017-07-27T06:23:57.193Z,91.70
2017-07-27T06:26:26.113Z,91.60
2017-07-27T06:28:53.649Z,91.60
2017-07-27T06:31:22.439Z,91.60
2017-07-27T06:33:49.976Z,91.60
2017-07-27T06:36:17.513Z,91.60
2017-07-27T06:38:45.859Z,91.60
2017-07-27T06:41:13.577Z,91.60
2017-07-27T06:43:41.303Z,91.70
2017-07-27T06:46:08.855Z,91.60
2017-07-27T06:48:36.439Z,91.60
2017-07-27T06:51:04.749Z,91.60
2017-07-27T06:53:32.389Z,91.90
2017-07-27T06:56:00.733Z,91.70
2017-07-27T06:58:28.780Z,91.60
2017-07-27T07:00:56.538Z,91.90
2017-07-27T07:03:24.082Z,91.70
2017-07-27T07:05:51.665Z,91.70
2017-07-27T07:08:19.282Z,91.70
2017-07-27T07:10:46.865Z,91.70
2017-07-27T07:13:14.407Z,91.70
2017-07-27T07:15:41.994Z,91.60
2017-07-27T07:18:09.626Z,91.60
2017-07-27T07:20:37.933Z,91.50
2017-07-27T07:23:09.118Z,91.50
2017-07-27T07:25:36.654Z,91.40
2017-07-27T07:28:04.306Z,91.30
2017-07-27T07:30:31.892Z,91.30
2017-07-27T07:32:59.595Z,91.30
2017-07-27T07:35:27.225Z,91.30
2017-07-27T07:37:54.784Z,91.30
2017-07-27T07:40:22.325Z,91.40
2017-07-27T07:42:49.906Z,91.30
2017-07-27T07:45:17.482Z,91.20
2017-07-27T07:47:45.030Z,91.10
2017-07-27T07:50:13.153Z,91.10
2017-07-27T07:52:40.693Z,91.20
2017-07-27T07:55:09.002Z,91.20
2017-07-27T07:57:36.713Z,91.20
2017-07-27T08:00:04.504Z,91.10
2017-07-27T08:02:32.945Z,91.00
2017-07-27T08:05:00.486Z,91.00
2017-07-27T08:07:28.165Z,90.90
2017-07-27T08:10:07.561Z,90.90
2017-07-27T08:12:35.272Z,90.90
2017-07-27T08:15:02.811Z,90.80
2017-07-27T08:17:30.691Z,90.70
2017-07-27T08:19:58.237Z,90.80
2017-07-27T08:22:25.785Z,90.80
2017-07-27T08:24:53.420Z,90.70
2017-07-27T08:27:21.003Z,90.60
2017-07-27T08:29:48.547Z,90.60
2017-07-27T08:32:16.459Z,90.60
2017-07-27T08:34:44.018Z,90.40
2017-07-27T08:37:11.562Z,90.40
2017-07-27T08:39:39.453Z,90.40
2017-07-27T08:42:07.046Z,90.30
2017-07-27T08:44:35.356Z,90.00
2017-07-27T08:47:02.960Z,90.00
2017-07-27T08:49:30.509Z,90.00
2017-07-27T08:51:58.050Z,89.90
2017-07-27T08:54:25.757Z,89.60
2017-07-27T08:56:58.781Z,89.00
2017-07-27T08:59:26.330Z,88.70
2017-07-27T09:01:53.874Z,89.00
2017-07-27T09:04:22.363Z,88.40
2017-07-27T09:06:50.669Z,88.00
2017-07-27T09:09:18.302Z,87.90
2017-07-27T09:11:45.853Z,87.60
2017-07-27T09:14:14.214Z,87.70
2017-07-27T09:16:41.752Z,87.00
2017-07-27T09:19:10.535Z,86.60
2017-07-27T09:21:38.073Z,86.40
2017-07-27T09:24:05.801Z,86.90
2017-07-27T09:26:34.114Z,87.10
2017-07-27T09:29:01.713Z,86.40
2017-07-27T09:31:29.250Z,85.90
2017-07-27T09:33:56.798Z,85.70
2017-07-27T09:36:24.378Z,85.20
2017-07-27T09:38:51.917Z,84.80
2017-07-27T09:41:19.590Z,84.30
2017-07-27T09:43:47.146Z,84.10
2017-07-27T09:46:14.809Z,83.80
2017-07-27T09:48:42.362Z,82.90
2017-07-27T09:51:09.901Z,82.60
2017-07-27T09:53:38.262Z,81.80
2017-07-27T09:56:05.797Z,81.70
2017-07-27T09:58:33.614Z,81.00
2017-07-27T10:01:01.733Z,79.90
2017-07-27T10:03:29.269Z,79.20
2017-07-27T10:05:56.822Z,78.50
2017-07-27T10:08:24.898Z,77.50
2017-07-27T10:10:52.439Z,76.70
2017-07-27T10:13:20.940Z,76.50
2017-07-27T10:15:48.477Z,75.70
2017-07-27T10:18:16.097Z,75.30
2017-07-27T10:20:43.685Z,75.30
2017-07-27T10:23:11.229Z,75.20
2017-07-27T10:25:38.962Z,75.50
2017-07-27T10:28:06.528Z,75.10
2017-07-27T10:30:34.079Z,74.70
2017-07-27T10:33:05.342Z,74.60
2017-07-27T10:35:32.877Z,73.60
2017-07-27T10:38:00.792Z,73.20
2017-07-27T10:40:28.325Z,72.90
2017-07-27T10:42:55.861Z,73.00
2017-07-27T10:45:27.653Z,73.40
2017-07-27T10:47:55.196Z,73.40
2017-07-27T10:50:22.733Z,73.10
2017-07-27T10:52:50.313Z,72.80
2017-07-27T10:55:18.154Z,72.20
2017-07-27T10:57:46.020Z,71.70
2017-07-27T11:00:13.562Z,72.00
2017-07-27T11:02:45.307Z,72.10
2017-07-27T11:05:12.851Z,72.00
2017-07-27T11:07:40.390Z,71.90
2017-07-27T11:10:08.182Z,71.30
2017-07-27T11:12:35.718Z,71.20
2017-07-27T11:15:05.537Z,71.00
2017-07-27T11:17:33.099Z,70.90
2017-07-27T11:20:00.637Z,70.10
2017-07-27T11:22:28.320Z,69.40
2017-07-27T11:24:55.861Z,69.10
2017-07-27T11:27:23.432Z,69.00
2017-07-27T11:29:50.974Z,68.70
2017-07-27T11:32:18.969Z,68.80
2017-07-27T11:34:46.504Z,68.90
2017-07-27T11:37:14.036Z,68.90
2017-07-27T11:39:41.610Z,68.80
2017-07-27T11:42:09.151Z,68.20
2017-07-27T11:44:37.085Z,68.20
2017-07-27T11:47:04.626Z,69.20
2017-07-27T11:49:32.161Z,68.90
2017-07-27T11:51:59.852Z,67.50
2017-07-27T11:54:27.445Z,67.10
2017-07-27T11:56:54.982Z,66.50
2017-07-27T11:59:22.915Z,66.20
2017-07-27T12:01:50.503Z,66.10
2017-07-27T12:04:18.042Z,66.40
2017-07-27T12:06:45.623Z,65.80
2017-07-27T12:09:13.167Z,65.40
2017-07-27T12:11:40.826Z,65.00
2017-07-27T12:14:08.367Z,64.50
2017-07-27T12:16:36.107Z,64.30
2017-07-27T12:19:03.647Z,64.30
2017-07-27T12:21:32.990Z,63.90
2017-07-27T12:24:00.578Z,63.70
2017-07-27T12:26:28.157Z,63.80
2017-07-27T12:28:55.705Z,64.20
2017-07-27T12:31:23.254Z,63.70
2017-07-27T12:33:51.158Z,63.10
2017-07-27T12:36:19.519Z,62.50
2017-07-27T12:38:47.213Z,62.50
2017-07-27T12:41:14.745Z,62.50
2017-07-27T12:43:42.282Z,63.00
2017-07-27T12:46:10.125Z,63.50
2017-07-27T12:48:37.665Z,63.50
2017-07-27T12:51:05.217Z,63.00
2017-07-27T12:53:33.377Z,62.90
2017-07-27T12:56:01.260Z,62.90
2017-07-27T12:58:28.798Z,63.20
2017-07-27T13:00:56.342Z,62.50
2017-07-27T13:03:24.342Z,62.20
2017-07-27T13:05:51.878Z,62.40
2017-07-27T13:08:19.418Z,62.50
2017-07-27T13:10:47.117Z,62.50
2017-07-27T13:13:14.767Z,62.50
2017-07-27T13:15:42.319Z,62.10
2017-07-27T13:18:09.898Z,61.80
2017-07-27T13:20:37.428Z,61.70
2017-07-27T13:23:05.010Z,61.10
2017-07-27T13:25:32.553Z,61.30
2017-07-27T13:28:00.273Z,60.50
2017-07-27T13:30:27.815Z,59.40
2017-07-27T13:32:55.405Z,59.00
2017-07-27T13:35:23.756Z,58.70
2017-07-27T13:37:51.301Z,58.60
2017-07-27T13:40:18.881Z,58.50
2017-07-27T13:42:46.430Z,58.00
2017-07-27T13:45:14.193Z,58.40
2017-07-27T13:47:41.724Z,58.60
2017-07-27T13:50:09.466Z,58.60
2017-07-27T13:52:37.000Z,58.50
2017-07-27T13:55:04.539Z,58.70
2017-07-27T13:57:32.469Z,59.00
2017-07-27T14:00:00.005Z,59.00
2017-07-27T14:02:28.485Z,59.30
2017-07-27T14:04:56.034Z,59.20
2017-07-27T14:07:24.799Z,60.00
2017-07-27T14:09:52.334Z,60.00
2017-07-27T14:12:19.891Z,60.20
2017-07-27T14:14:47.923Z,59.90
2017-07-27T14:17:16.230Z,60.50
2017-07-27T14:19:43.785Z,60.50
2017-07-27T14:22:11.480Z,60.60
2017-07-27T14:24:39.062Z,60.30
2017-07-27T14:27:07.120Z,60.20
2017-07-27T14:29:34.659Z,60.40
2017-07-27T14:32:02.197Z,60.20
2017-07-27T14:34:29.769Z,59.70
2017-07-27T14:36:57.314Z,59.90
2017-07-27T14:39:25.438Z,60.00
2017-07-27T14:41:52.976Z,60.90
2017-07-27T14:44:20.521Z,61.10
2017-07-27T14:46:48.096Z,60.90
2017-07-27T14:49:15.675Z,61.30
2017-07-27T14:51:43.253Z,60.80
2017-07-27T14:54:10.796Z,59.90
2017-07-27T14:56:39.338Z,59.50
2017-07-27T14:59:06.868Z,59.00
2017-07-27T15:01:34.409Z,59.00
2017-07-27T15:04:02.040Z,59.20
2017-07-27T15:06:29.570Z,59.30
2017-07-27T15:08:57.144Z,58.20
2017-07-27T15:11:24.690Z,57.60
2017-07-27T15:13:52.333Z,57.30
2017-07-27T15:16:19.873Z,57.50
2017-07-27T15:18:47.521Z,57.70
2017-07-27T15:21:15.057Z,57.00
2017-07-27T15:23:42.941Z,56.70
2017-07-27T15:26:10.482Z,56.70
2017-07-27T15:28:38.786Z,56.60
2017-07-27T15:31:06.441Z,56.50
2017-07-27T15:33:34.025Z,56.30
2017-07-27T15:36:01.596Z,56.20
2017-07-27T15:38:29.134Z,55.90
2017-07-27T15:40:57.034Z,55.40
2017-07-27T15:43:24.572Z,55.30
2017-07-27T15:45:52.115Z,55.30
2017-07-27T15:48:19.758Z,56.00
2017-07-27T15:50:48.102Z,56.10
2017-07-27T15:53:15.673Z,56.00
2017-07-27T15:55:43.209Z,56.00
2017-07-27T15:58:10.929Z,55.80
2017-07-27T16:00:39.224Z,56.50
2017-07-27T16:03:06.946Z,56.50
2017-07-27T16:05:34.530Z,56.90
2017-07-27T16:08:03.454Z,56.60
2017-07-27T16:10:30.985Z,56.60
2017-07-27T16:12:58.529Z,56.80
2017-07-27T16:15:26.882Z,57.40
2017-07-27T16:17:54.462Z,57.40
2017-07-27T16:20:22.925Z,57.80
2017-07-27T16:22:50.457Z,57.80
2017-07-27T16:25:18.422Z,57.90
2017-07-27T16:27:45.966Z,57.60
2017-07-27T16:30:13.497Z,57.10
2017-07-27T16:32:41.841Z,57.20
2017-07-27T16:35:09.414Z,57.20
2017-07-27T16:37:37.261Z,57.50
2017-07-27T16:40:04.834Z,57.80
2017-07-27T16:42:32.798Z,57.10
2017-07-27T16:45:00.345Z,56.90
2017-07-27T16:47:27.898Z,56.60
2017-07-27T16:49:55.797Z,56.70
2017-07-27T16:52:23.342Z,56.70
2017-07-27T16:54:50.888Z,56.80
2017-07-27T16:57:18.978Z,57.00
2017-07-27T16:59:46.519Z,56.90
2017-07-27T17:02:14.218Z,56.70
2017-07-27T17:04:41.757Z,56.80
2017-07-27T17:07:09.305Z,56.90
2017-07-27T17:09:36.958Z,57.30
2017-07-27T17:12:04.501Z,57.70
2017-07-27T17:14:32.370Z,58.00
2017-07-27T17:17:00.222Z,58.10
2017-07-27T17:19:27.794Z,58.00
2017-07-27T17:21:55.345Z,58.10
2017-07-27T17:24:24.228Z,58.40
2017-07-27T17:26:52.541Z,58.40
2017-07-27T17:29:20.073Z,58.40
2017-07-27T17:31:48.541Z,58.70
2017-07-27T17:34:16.229Z,58.60
2017-07-27T17:36:44.237Z,58.40
2017-07-27T17:39:11.769Z,58.50
2017-07-27T17:41:39.310Z,58.60
2017-07-27T17:44:07.645Z,59.10
2017-07-27T17:46:35.186Z,59.00
2017-07-27T17:49:02.837Z,59.50
2017-07-27T17:51:30.425Z,60.00
2017-07-27T17:53:57.967Z,60.10
2017-07-27T17:56:25.501Z,59.90
2017-07-27T17:58:53.218Z,59.70
2017-07-27T18:01:20.753Z,59.60
2017-07-27T18:03:48.750Z,59.90
2017-07-27T18:06:16.286Z,60.00
2017-07-27T18:08:43.822Z,59.70
2017-07-27T18:11:11.472Z,59.80
2017-07-27T18:13:39.369Z,60.60
2017-07-27T18:16:06.904Z,60.00
2017-07-27T18:18:34.441Z,60.20
2017-07-27T18:21:02.901Z,61.80
2017-07-27T18:23:30.476Z,61.00
2017-07-27T18:25:58.019Z,61.40
2017-07-27T18:28:25.666Z,61.50
2017-07-27T18:30:53.206Z,61.40
2017-07-27T18:33:20.785Z,62.00
2017-07-27T18:35:48.328Z,61.40
2017-07-27T18:38:16.187Z,61.40
2017-07-27T18:40:43.731Z,61.50
2017-07-27T18:43:11.269Z,61.80
2017-07-27T18:45:38.965Z,62.30
2017-07-27T18:48:06.498Z,62.40
2017-07-27T18:50:34.810Z,62.60
2017-07-27T18:53:02.816Z,62.50
2017-07-27T18:55:30.354Z,62.90
2017-07-27T18:57:58.006Z,63.40
2017-07-27T19:00:25.542Z,63.80
2017-07-27T19:02:53.529Z,64.00
2017-07-27T19:05:21.064Z,64.20
2017-07-27T19:07:48.597Z,64.20
2017-07-27T19:10:16.570Z,64.40
2017-07-27T19:12:44.109Z,64.40
2017-07-27T19:15:11.646Z,64.80
2017-07-27T19:17:39.293Z,64.90
2017-07-27T19:20:06.883Z,65.00
2017-07-27T19:22:34.424Z,65.00
2017-07-27T19:25:02.006Z,65.20
2017-07-27T19:27:29.541Z,65.20
2017-07-27T19:29:59.904Z,65.10
2017-07-27T19:32:27.866Z,65.10
2017-07-27T19:34:55.406Z,65.50
2017-07-27T19:37:22.941Z,65.70
2017-07-27T19:39:50.513Z,66.20
2017-07-27T19:42:18.046Z,66.80
2017-07-27T19:44:47.716Z,67.60
2017-07-27T19:47:15.253Z,67.60
2017-07-27T19:49:43.240Z,67.50
2017-07-27T19:52:10.783Z,67.70
2017-07-27T19:54:38.358Z,67.60
2017-07-27T19:57:05.900Z,68.10
2017-07-27T19:59:33.726Z,68.50
2017-07-27T20:02:01.260Z,68.60
2017-07-27T20:04:28.805Z,68.40
2017-07-27T20:06:56.680Z,68.50
2017-07-27T20:09:24.257Z,68.60
2017-07-27T20:11:51.841Z,68.90
2017-07-27T20:14:19.373Z,69.00
2017-07-27T20:16:46.946Z,69.40
2017-07-27T20:19:15.265Z,69.50
2017-07-27T20:21:43.480Z,69.50
2017-07-27T20:24:11.022Z,69.70
2017-07-27T20:26:38.570Z,69.80
2017-07-27T20:29:06.157Z,69.80
2017-07-27T20:31:33.703Z,70.20
2017-07-27T20:34:01.681Z,70.30
2017-07-27T20:36:29.226Z,70.30
2017-07-27T20:38:56.774Z,70.50
2017-07-27T20:41:24.543Z,70.50
2017-07-27T20:43:52.077Z,70.70
2017-07-27T20:46:20.431Z,70.90
2017-07-27T20:48:48.013Z,70.90
2017-07-27T20:51:16.333Z,71.30
2017-07-27T20:53:43.874Z,71.80
2017-07-27T20:56:11.973Z,71.60
2017-07-27T20:58:39.698Z,71.70
2017-07-27T21:01:07.246Z,72.10
2017-07-27T21:03:35.751Z,72.40
2017-07-27T21:06:03.299Z,72.20
2017-07-27T21:08:31.029Z,72.50
2017-07-27T21:10:58.558Z,72.80
2017-07-27T21:13:26.443Z,73.20
2017-07-27T21:15:54.033Z,73.50
2017-07-27T21:18:22.381Z,73.90
2017-07-27T21:20:49.917Z,73.90
2017-07-27T21:23:17.501Z,74.30
2017-07-27T21:25:45.046Z,74.50
2017-07-27T21:28:12.621Z,74.70
2017-07-27T21:30:40.159Z,74.90
2017-07-27T21:33:08.040Z,75.10
2017-07-27T21:35:35.573Z,75.30
2017-07-27T21:38:03.110Z,75.50
2017-07-27T21:40:31.454Z,75.80
2017-07-27T21:42:58.984Z,75.80
2017-07-27T21:45:26.570Z,75.90
2017-07-27T21:47:54.105Z,76.10
2017-07-27T21:50:22.201Z,76.40
2017-07-27T21:52:49.733Z,76.60
2017-07-27T21:55:17.277Z,76.80
2017-07-27T21:57:45.545Z,77.00
2017-07-27T22:00:13.845Z,77.40
2017-07-27T22:02:41.421Z,77.30
2017-07-27T22:05:08.963Z,77.50
2017-07-27T22:07:36.693Z,77.50
2017-07-27T22:10:05.002Z,77.60
2017-07-27T22:12:32.603Z,77.50
2017-07-27T22:15:00.146Z,77.60
2017-07-27T22:17:28.325Z,77.60
2017-07-27T22:19:55.866Z,77.60
2017-07-27T22:22:23.437Z,77.80
2017-07-27T22:24:50.973Z,77.80
2017-07-27T22:27:18.739Z,77.90
2017-07-27T22:29:46.273Z,78.00
2017-07-27T22:32:14.925Z,78.40
2017-07-27T22:34:42.466Z,78.30
2017-07-27T22:37:10.002Z,78.40
2017-07-27T22:39:37.575Z,78.70
2017-07-27T22:42:05.115Z,78.90
2017-07-27T22:44:37.772Z,79.00
2017-07-27T22:47:06.116Z,78.80
2017-07-27T22:49:33.646Z,79.20
2017-07-27T22:52:01.221Z,79.30
2017-07-27T22:54:28.748Z,79.50
2017-07-27T22:56:57.101Z,79.60
2017-07-27T22:59:25.150Z,79.60
2017-07-27T23:01:52.781Z,79.70
2017-07-27T23:04:20.324Z,79.80
2017-07-27T23:06:48.665Z,80.00
2017-07-27T23:09:16.197Z,80.00
2017-07-27T23:11:43.773Z,80.20
2017-07-27T23:14:11.310Z,80.30
2017-07-27T23:16:38.850Z,80.30
2017-07-27T23:19:07.064Z,80.40
2017-07-27T23:21:34.877Z,80.40
2017-07-27T23:24:03.228Z,80.80
2017-07-27T23:26:30.765Z,80.80
2017-07-27T23:28:58.337Z,80.90
2017-07-27T23:31:25.870Z,80.90
2017-07-27T23:33:53.715Z,81.10
2017-07-27T23:36:21.253Z,81.10
2017-07-27T23:38:49.553Z,81.20
2017-07-27T23:41:17.313Z,81.10
2017-07-27T23:43:44.893Z,81.20
2017-07-27T23:46:12.446Z,81.30
2017-07-27T23:48:40.027Z,81.40
2017-07-27T23:51:07.605Z,81.50
2017-07-27T23:53:35.144Z,81.60
2017-07-27T23:56:08.130Z,81.60
2017-07-27T23:58:35.721Z,81.60
